Time;durP1;ratioP1;P1;durP2;ratioP2;P2;SDS_P1;SDS_P2;PMS_P1;PMS_P2;Temp;Humidity;BMP_temperature;BMP_pressure;BME280_temperature;BME280_humidity;BME280_pressure;Samples;Min_cycle;Max_cycle;Signal;HPM_P1;HPM_P2
2024/03/16 00:01:39;;;;;;;11.40;2.15;;;12.50;89.20;;;;;;5072118;28;20021;-35
2024/03/16 00:04:05;;;;;;;10.48;2.67;;;12.50;89.20;;;;;;5071824;28;20397;-34
2024/03/16 00:06:30;;;;;;;8.50;2.40;;;12.50;89.20;;;;;;5071902;28;20054;-31
2024/03/16 00:08:56;;;;;;;11.10;2.55;;;12.50;89.20;;;;;;5071883;28;20535;-30
2024/03/16 00:11:22;;;;;;;15.02;2.97;;;12.50;89.20;;;;;;5072012;28;20017;-30
2024/03/16 00:13:48;;;;;;;9.85;3.00;;;12.50;89.20;;;;;;5070469;28;20487;-40
2024/03/16 00:16:13;;;;;;;12.38;2.70;;;12.50;89.20;;;;;;5071803;28;20025;-31
2024/03/16 00:18:39;;;;;;;9.45;2.60;;;12.50;89.20;;;;;;5071681;28;20036;-32
2024/03/16 00:21:05;;;;;;;8.90;2.38;;;12.50;89.20;;;;;;5071693;28;20397;-31
2024/03/16 00:23:30;;;;;;;9.13;2.75;;;12.50;89.30;;;;;;5071794;28;20035;-30
2024/03/16 00:25:56;;;;;;;10.18;2.65;;;12.50;89.20;;;;;;5071761;28;20020;-30
2024/03/16 00:28:21;;;;;;;7.15;2.70;;;12.50;89.30;;;;;;5071402;28;20500;-32
2024/03/16 00:30:48;;;;;;;10.30;2.70;;;12.50;89.40;;;;;;5071575;28;20094;-30
2024/03/16 00:33:14;;;;;;;14.38;3.08;;;12.50;89.40;;;;;;5071863;28;20033;-33
2024/03/16 00:35:40;;;;;;;8.10;2.55;;;12.50;89.40;;;;;;5071229;28;20049;-33
2024/03/16 00:38:05;;;;;;;10.15;3.15;;;12.50;89.40;;;;;;5071456;28;20058;-31
2024/03/16 00:40:31;;;;;;;8.18;2.95;;;12.50;89.30;;;;;;5071460;28;20029;-30
2024/03/16 00:42:57;;;;;;;13.55;3.55;;;12.50;89.40;;;;;;5069704;28;20434;-31
2024/03/16 00:45:22;;;;;;;10.25;2.83;;;12.50;89.60;;;;;;5069661;28;20099;-30
2024/03/16 00:47:48;;;;;;;11.70;3.60;;;12.50;89.80;;;;;;5071290;28;20044;-31
2024/03/16 00:50:17;;;;;;;11.73;3.25;;;12.40;90.00;;;;;;5071061;28;20107;-30
2024/03/16 00:52:42;;;;;;;10.57;3.53;;;12.40;90.00;;;;;;5071016;28;20025;-30
2024/03/16 00:55:09;;;;;;;13.93;4.20;;;12.30;90.10;;;;;;5070995;28;20036;-39
2024/03/16 00:57:34;;;;;;;9.98;3.42;;;12.20;90.30;;;;;;5071083;28;20029;-40
2024/03/16 01:00:00;;;;;;;13.90;3.47;;;12.20;90.40;;;;;;5071645;28;20028;-29
2024/03/16 01:02:26;;;;;;;13.60;3.88;;;12.10;90.50;;;;;;5074582;28;20025;-31
2024/03/16 01:04:51;;;;;;;10.30;3.17;;;12.00;90.60;;;;;;5074192;28;20024;-31
2024/03/16 01:07:17;;;;;;;10.25;3.67;;;12.00;90.70;;;;;;5074457;28;20412;-30
2024/03/16 01:09:42;;;;;;;19.45;4.03;;;12.00;90.80;;;;;;5074261;28;20107;-30
2024/03/16 01:12:08;;;;;;;9.25;3.17;;;12.00;90.90;;;;;;5074193;28;20485;-30
2024/03/16 01:14:33;;;;;;;11.88;3.92;;;12.00;91.00;;;;;;5073934;28;20032;-29
2024/03/16 01:16:59;;;;;;;12.07;3.90;;;12.00;91.00;;;;;;5074031;28;20029;-29
2024/03/16 01:19:25;;;;;;;17.67;3.65;;;11.90;91.00;;;;;;5072757;28;20401;-31
2024/03/16 01:21:51;;;;;;;12.75;3.90;;;12.00;91.10;;;;;;5074028;28;20029;-32
2024/03/16 01:24:17;;;;;;;12.13;4.40;;;11.90;91.10;;;;;;5073955;28;20370;-29
2024/03/16 01:26:43;;;;;;;15.10;4.22;;;11.90;91.20;;;;;;5074133;28;20044;-30
2024/03/16 01:29:13;;;;;;;11.23;4.10;;;11.90;91.20;;;;;;5074180;28;20087;-29
2024/03/16 01:31:39;;;;;;;13.30;4.63;;;11.90;91.30;;;;;;5073991;28;20119;-30
2024/03/16 01:34:05;;;;;;;10.32;4.53;;;11.90;91.60;;;;;;5074054;28;20104;-32
2024/03/16 01:36:30;;;;;;;12.95;5.38;;;11.90;91.40;;;;;;5073462;28;20040;-28
2024/03/16 01:38:56;;;;;;;18.58;5.13;;;11.90;91.40;;;;;;5072227;28;20381;-35
2024/03/16 01:41:21;;;;;;;12.68;4.85;;;11.90;91.50;;;;;;5073680;28;20028;-30
2024/03/16 01:43:48;;;;;;;14.73;5.90;;;11.80;91.50;;;;;;5073793;28;20056;-30
2024/03/16 01:46:15;;;;;;;13.30;5.43;;;11.80;91.50;;;;;;5073709;28;20055;-29
2024/03/16 01:48:45;;;;;;;18.35;6.35;;;11.80;91.60;;;;;;5073840;28;20032;-30
2024/03/16 01:51:12;;;;;;;15.52;5.60;;;11.80;91.70;;;;;;5073721;28;20036;-30
2024/03/16 01:53:38;;;;;;;16.88;5.60;;;11.80;91.70;;;;;;5073691;28;20532;-30
2024/03/16 01:56:04;;;;;;;16.23;6.28;;;11.80;91.70;;;;;;5073482;28;20389;-28
2024/03/16 01:58:36;;;;;;;12.73;5.18;;;11.80;91.80;;;;;;5073390;28;20485;-31
2024/03/16 02:01:02;;;;;;;12.38;5.70;;;11.80;91.90;;;;;;5073322;28;20385;-28
2024/03/16 02:03:27;;;;;;;14.98;5.65;;;11.80;91.90;;;;;;5073382;28;20214;-29
2024/03/16 02:05:53;;;;;;;17.05;6.63;;;11.80;91.90;;;;;;5073007;28;20080;-28
2024/03/16 02:08:19;;;;;;;13.43;6.57;;;11.80;92.00;;;;;;5073144;28;20028;-29
2024/03/16 02:10:44;;;;;;;15.63;5.90;;;11.70;92.00;;;;;;5073004;28;20020;-37
2024/03/16 02:13:10;;;;;;;15.25;6.35;;;11.70;92.00;;;;;;5073193;28;20032;-29
2024/03/16 02:15:35;;;;;;;14.93;6.13;;;11.70;92.10;;;;;;5072984;28;20021;-29
2024/03/16 02:18:01;;;;;;;19.52;6.68;;;11.70;92.10;;;;;;5072786;28;20500;-30
2024/03/16 02:20:26;;;;;;;20.35;6.75;;;11.70;92.20;;;;;;5072894;28;20024;-30
2024/03/16 02:22:52;;;;;;;14.07;6.30;;;11.60;92.30;;;;;;5073251;28;20024;-37
2024/03/16 02:25:18;;;;;;;18.63;6.90;;;11.60;92.30;;;;;;5072642;28;20027;-31
2024/03/16 02:27:44;;;;;;;18.52;6.57;;;11.60;92.50;;;;;;5073034;28;20048;-30
2024/03/16 02:30:10;;;;;;;15.98;6.95;;;11.60;92.50;;;;;;5072940;28;20473;-34
2024/03/16 02:32:36;;;;;;;17.02;6.97;;;11.50;92.60;;;;;;5073121;28;20052;-31
2024/03/16 02:35:02;;;;;;;15.23;6.50;;;11.50;92.60;;;;;;5072631;28;20489;-34
2024/03/16 02:37:28;;;;;;;16.75;6.80;;;11.50;92.70;;;;;;5071043;28;20024;-34
2024/03/16 02:39:53;;;;;;;15.32;6.45;;;11.50;92.70;;;;;;5072599;28;20384;-31
2024/03/16 02:42:19;;;;;;;19.90;7.22;;;11.50;92.70;;;;;;5072689;28;20021;-30
2024/03/16 02:44:46;;;;;;;15.18;7.30;;;11.50;92.80;;;;;;5072191;28;20082;-33
2024/03/16 02:47:12;;;;;;;20.60;8.98;;;11.50;92.80;;;;;;5072606;28;20033;-43
2024/03/16 02:49:37;;;;;;;19.85;8.35;;;11.50;92.80;;;;;;5072294;28;20057;-39
2024/03/16 02:52:06;;;;;;;20.48;7.85;;;11.50;92.90;;;;;;5072602;28;20522;-35
2024/03/16 02:54:31;;;;;;;16.55;7.85;;;11.50;92.90;;;;;;5072621;28;20024;-33
2024/03/16 02:56:57;;;;;;;22.30;9.23;;;11.50;93.00;;;;;;5072143;28;20035;-35
2024/03/16 02:59:22;;;;;;;17.27;8.77;;;11.50;93.10;;;;;;5072243;28;20029;-33
2024/03/16 03:01:48;;;;;;;19.98;8.68;;;11.40;93.00;;;;;;5072086;28;20017;-34
2024/03/16 03:04:17;;;;;;;18.98;8.70;;;11.30;93.00;;;;;;5072316;28;20536;-33
2024/03/16 03:06:42;;;;;;;15.40;7.97;;;11.20;92.90;;;;;;5072018;28;20119;-35
2024/03/16 03:09:09;;;;;;;17.67;8.70;;;11.10;93.00;;;;;;5071937;28;20107;-33
2024/03/16 03:11:37;;;;;;;21.02;7.72;;;11.00;93.00;;;;;;5072152;28;20042;-32
2024/03/16 03:14:03;;;;;;;17.48;6.57;;;11.00;93.10;;;;;;5071867;28;20046;-29
2024/03/16 03:16:29;;;;;;;13.80;5.78;;;10.90;93.00;;;;;;5071717;28;20059;-32
2024/03/16 03:18:55;;;;;;;16.25;4.57;;;10.90;93.00;;;;;;5071988;28;20428;-40
2024/03/16 03:21:20;;;;;;;12.13;5.18;;;10.80;92.90;;;;;;5072117;28;20020;-30
2024/03/16 03:23:46;;;;;;;11.98;4.30;;;10.70;92.80;;;;;;5071462;28;20043;-35
2024/03/16 03:26:13;;;;;;;11.18;4.07;;;10.70;92.80;;;;;;5071720;28;20025;-32
2024/03/16 03:28:39;;;;;;;9.50;3.88;;;10.60;92.90;;;;;;5072039;28;20021;-33
2024/03/16 03:31:06;;;;;;;6.18;3.50;;;10.60;92.90;;;;;;5072185;28;20024;-32
2024/03/16 03:33:32;;;;;;;6.85;3.92;;;10.60;92.90;;;;;;5071695;28;20108;-33
2024/03/16 03:35:59;;;;;;;8.48;3.95;;;10.60;92.90;;;;;;5071528;28;20079;-36
2024/03/16 03:38:25;;;;;;;5.57;3.00;;;10.60;92.90;;;;;;5072071;28;20389;-36
2024/03/16 03:40:50;;;;;;;11.57;3.60;;;10.60;92.90;;;;;;5071692;28;20031;-35
2024/03/16 03:43:22;;;;;;;6.47;3.50;;;10.60;92.90;;;;;;5071554;28;20060;-35
2024/03/16 03:45:52;;;;;;;12.15;3.40;;;10.60;92.90;;;;;;5071592;28;20146;-37
2024/03/16 03:50:57;;;;;;;6.05;4.10;;;10.60;92.90;;;;;;5071880;28;20093;-35
2024/03/16 03:53:25;;;;;;;9.05;5.07;;;10.60;92.90;;;;;;5071547;28;20028;-34
2024/03/16 03:55:51;;;;;;;10.85;5.47;;;10.60;92.80;;;;;;5071417;28;20036;-31
2024/03/16 03:58:17;;;;;;;11.95;5.72;;;10.50;92.80;;;;;;5071574;28;20035;-32
2024/03/16 04:00:44;;;;;;;8.35;5.28;;;10.50;92.90;;;;;;5071185;28;20481;-33
2024/03/16 04:03:10;;;;;;;7.82;5.60;;;10.50;92.80;;;;;;5071635;28;20021;-29
2024/03/16 04:05:36;;;;;;;7.70;5.28;;;10.50;92.90;;;;;;5071342;28;20123;-29
2024/03/16 04:08:04;;;;;;;7.10;4.90;;;10.50;92.80;;;;;;5071253;28;20381;-29
2024/03/16 04:10:30;;;;;;;6.90;5.30;;;10.40;92.80;;;;;;5071698;28;20029;-28
2024/03/16 04:12:56;;;;;;;4.72;3.85;;;10.30;92.80;;;;;;5071478;28;20487;-31
2024/03/16 04:15:21;;;;;;;6.53;3.67;;;10.20;92.80;;;;;;5071400;28;20017;-29
2024/03/16 04:17:47;;;;;;;4.47;3.10;;;10.10;92.80;;;;;;5071361;28;20504;-30
2024/03/16 04:20:12;;;;;;;5.57;3.05;;;10.00;92.90;;;;;;5071746;28;20062;-28
2024/03/16 04:22:42;;;;;;;4.15;3.00;;;10.00;93.00;;;;;;5071461;28;20028;-31
2024/03/16 04:25:14;;;;;;;5.70;2.90;;;9.90;93.00;;;;;;5071479;28;20473;-33
2024/03/16 04:27:42;;;;;;;3.83;2.17;;;9.80;93.00;;;;;;5071854;28;20020;-30
2024/03/16 04:30:08;;;;;;;3.83;1.75;;;9.70;93.10;;;;;;5071559;28;20032;-29
2024/03/16 04:32:38;;;;;;;3.70;1.92;;;9.70;93.10;;;;;;5070145;28;20174;-30
2024/03/16 04:35:04;;;;;;;3.15;2.03;;;9.70;93.20;;;;;;5072292;28;20048;-28
2024/03/16 04:37:30;;;;;;;3.75;1.80;;;9.60;93.10;;;;;;5075192;28;20029;-29
2024/03/16 04:39:56;;;;;;;3.88;1.65;;;9.60;93.20;;;;;;5075475;28;20017;-29
2024/03/16 04:42:22;;;;;;;3.88;1.40;;;9.60;93.20;;;;;;5073980;28;20380;-29
2024/03/16 04:44:47;;;;;;;1.58;1.48;;;9.60;93.20;;;;;;5074971;28;20043;-30
2024/03/16 04:47:13;;;;;;;2.70;1.30;;;9.60;93.30;;;;;;5075461;28;20021;-45
2024/03/16 04:49:39;;;;;;;2.58;1.50;;;9.60;93.20;;;;;;5074999;28;20031;-30
2024/03/16 04:52:05;;;;;;;2.47;1.20;;;9.60;93.20;;;;;;5075049;28;20063;-29
2024/03/16 04:54:31;;;;;;;1.50;1.20;;;9.60;93.20;;;;;;5075043;28;20071;-29
2024/03/16 04:56:57;;;;;;;3.47;1.30;;;9.60;93.20;;;;;;5074983;28;20032;-32
2024/03/16 04:59:22;;;;;;;3.17;1.48;;;9.60;93.20;;;;;;5074954;28;20099;-30
2024/03/16 05:01:48;;;;;;;3.63;1.50;;;9.60;93.20;;;;;;5074932;28;20389;-28
2024/03/16 05:04:13;;;;;;;3.22;1.33;;;9.60;93.10;;;;;;5074736;28;20033;-31
2024/03/16 05:06:40;;;;;;;3.25;1.33;;;9.60;93.10;;;;;;5073444;28;20024;-29
2024/03/16 05:09:09;;;;;;;3.70;1.05;;;9.50;93.10;;;;;;5074873;28;20036;-30
2024/03/16 05:11:36;;;;;;;2.85;1.05;;;9.50;93.20;;;;;;5074550;28;20063;-29
2024/03/16 05:14:02;;;;;;;2.33;1.15;;;9.60;93.20;;;;;;5074346;28;20025;-29
2024/03/16 05:16:28;;;;;;;3.55;1.45;;;9.60;93.20;;;;;;5074361;28;20036;-31
2024/03/16 05:18:54;;;;;;;4.82;1.20;;;9.60;93.20;;;;;;5074458;28;20013;-31
2024/03/16 05:21:19;;;;;;;2.60;1.23;;;9.60;93.20;;;;;;5074501;28;20017;-27
2024/03/16 05:23:45;;;;;;;2.47;1.23;;;9.60;93.20;;;;;;5074225;28;20107;-29
2024/03/16 05:26:11;;;;;;;1.60;1.10;;;9.60;93.10;;;;;;5074388;28;20021;-32
2024/03/16 05:28:39;;;;;;;4.05;1.38;;;9.60;93.10;;;;;;5074329;28;20031;-30
2024/03/16 05:31:05;;;;;;;4.47;1.23;;;9.60;93.10;;;;;;5074489;28;20016;-42
2024/03/16 05:33:30;;;;;;;4.40;1.25;;;9.70;93.10;;;;;;5074089;28;20035;-31
2024/03/16 05:35:56;;;;;;;1.70;1.30;;;9.70;93.10;;;;;;5073611;28;20040;-29
2024/03/16 05:38:23;;;;;;;2.00;1.10;;;9.70;93.40;;;;;;5074364;28;20047;-28
2024/03/16 05:40:49;;;;;;;4.10;1.45;;;9.70;93.00;;;;;;5072478;28;20465;-31
2024/03/16 05:43:14;;;;;;;3.60;1.20;;;9.70;93.10;;;;;;5074132;28;20091;-28
2024/03/16 05:45:41;;;;;;;2.38;1.10;;;9.60;93.00;;;;;;5073299;28;20078;-29
2024/03/16 05:48:07;;;;;;;1.42;0.95;;;9.60;92.90;;;;;;5074286;28;20485;-30
2024/03/16 05:50:33;;;;;;;2.15;1.20;;;9.50;92.90;;;;;;5073911;28;20103;-28
2024/03/16 05:52:59;;;;;;;3.70;1.30;;;9.50;93.00;;;;;;5072497;28;20028;-29
2024/03/16 05:55:25;;;;;;;4.22;1.23;;;9.50;93.00;;;;;;5074045;28;20114;-30
2024/03/16 05:57:50;;;;;;;2.05;1.10;;;9.50;92.90;;;;;;5073444;28;20067;-30
2024/03/16 06:00:18;;;;;;;2.67;1.27;;;9.40;93.00;;;;;;5074075;28;20100;-29
2024/03/16 06:02:44;;;;;;;2.70;1.00;;;9.40;92.90;;;;;;5073789;28;20021;-29
2024/03/16 06:05:09;;;;;;;3.53;1.30;;;9.40;92.80;;;;;;5073324;28;20433;-28
2024/03/16 06:07:35;;;;;;;3.70;1.30;;;9.40;92.70;;;;;;5073951;28;20020;-28
2024/03/16 06:10:01;;;;;;;2.65;1.00;;;9.30;92.60;;;;;;5073766;28;20532;-29
2024/03/16 06:12:30;;;;;;;2.03;0.90;;;9.10;92.60;;;;;;5073542;28;20067;-29
2024/03/16 06:14:57;;;;;;;5.10;1.25;;;9.00;92.70;;;;;;5072085;28;20104;-29
2024/03/16 06:17:23;;;;;;;2.67;0.88;;;8.90;92.80;;;;;;5073264;28;20022;-29
2024/03/16 06:19:50;;;;;;;2.33;0.98;;;8.90;92.80;;;;;;5073347;28;20024;-31
2024/03/16 06:22:16;;;;;;;2.30;0.95;;;8.80;92.80;;;;;;5073607;28;20480;-31
2024/03/16 06:24:42;;;;;;;3.25;0.75;;;8.80;92.80;;;;;;5073391;28;20024;-32
2024/03/16 06:27:10;;;;;;;3.15;0.90;;;8.70;92.90;;;;;;5073465;28;20437;-28
2024/03/16 06:29:36;;;;;;;3.80;0.70;;;8.70;93.00;;;;;;5073064;28;20028;-28
2024/03/16 06:32:07;;;;;;;2.92;0.80;;;8.70;92.90;;;;;;5073180;28;20074;-28
2024/03/16 06:34:33;;;;;;;5.03;1.05;;;8.70;92.70;;;;;;5071581;28;20020;-31
2024/03/16 06:36:59;;;;;;;2.28;0.50;;;8.60;92.70;;;;;;5072752;28;20068;-29
2024/03/16 06:39:26;;;;;;;3.25;0.70;;;8.60;92.60;;;;;;5071625;28;20032;-29
2024/03/16 06:41:54;;;;;;;1.50;0.70;;;8.60;92.70;;;;;;5073180;28;20017;-31
2024/03/16 06:44:20;;;;;;;1.95;0.40;;;8.70;92.60;;;;;;5072750;28;20095;-37
2024/03/16 06:46:45;;;;;;;4.45;0.80;;;8.70;92.60;;;;;;5073044;28;20465;-27
2024/03/16 06:49:11;;;;;;;1.08;0.65;;;8.80;92.60;;;;;;5072954;28;20389;-29
2024/03/16 06:51:36;;;;;;;1.35;0.50;;;8.80;92.50;;;;;;5072594;28;20591;-32
2024/03/16 06:54:03;;;;;;;2.72;0.55;;;8.80;92.40;;;;;;5072662;28;20032;-29
2024/03/16 06:56:29;;;;;;;3.92;0.60;;;8.80;92.40;;;;;;5072382;28;20021;-29
2024/03/16 06:58:55;;;;;;;3.65;0.70;;;8.90;92.30;;;;;;5071870;28;20103;-29
2024/03/16 07:01:24;;;;;;;2.08;0.90;;;8.80;92.20;;;;;;5072452;28;20032;-36
2024/03/16 07:03:50;;;;;;;1.90;0.80;;;8.80;92.10;;;;;;5072565;28;20384;-43
2024/03/16 07:06:16;;;;;;;4.80;0.80;;;8.80;92.10;;;;;;5072599;28;20031;-28
2024/03/16 07:08:41;;;;;;;1.52;0.88;;;8.70;92.10;;;;;;5072582;28;20016;-29
2024/03/16 07:11:07;;;;;;;3.08;0.68;;;8.80;92.20;;;;;;5072728;28;20473;-30
2024/03/16 07:13:32;;;;;;;3.58;0.85;;;8.80;92.20;;;;;;5072495;28;20025;-30
2024/03/16 07:15:58;;;;;;;3.92;0.90;;;8.80;92.20;;;;;;5072217;28;20415;-29
2024/03/16 07:18:24;;;;;;;3.83;0.85;;;8.90;92.20;;;;;;5072197;28;20363;-28
2024/03/16 07:20:50;;;;;;;2.22;0.90;;;8.90;92.10;;;;;;5072186;28;20033;-29
2024/03/16 07:23:16;;;;;;;5.65;1.10;;;8.90;92.10;;;;;;5072470;28;20512;-31
2024/03/16 07:25:41;;;;;;;5.25;0.85;;;9.00;92.10;;;;;;5072203;28;20066;-29
2024/03/16 07:28:11;;;;;;;5.13;0.95;;;9.00;92.10;;;;;;5072235;28;20025;-29
2024/03/16 07:30:37;;;;;;;5.60;0.80;;;9.00;92.00;;;;;;5072510;28;20029;-28
2024/03/16 07:33:03;;;;;;;7.05;1.00;;;9.00;92.00;;;;;;5072059;28;20112;-29
2024/03/16 07:35:28;;;;;;;3.80;1.30;;;9.00;91.90;;;;;;5071610;28;20052;-30
2024/03/16 07:37:55;;;;;;;4.38;1.08;;;9.10;91.90;;;;;;5072087;28;20029;-30
2024/03/16 07:40:21;;;;;;;3.40;0.85;;;9.10;91.80;;;;;;5072224;28;20429;-28
2024/03/16 07:42:47;;;;;;;3.00;1.20;;;9.20;91.70;;;;;;5070552;28;20031;-31
2024/03/16 07:45:14;;;;;;;3.88;1.08;;;9.20;91.70;;;;;;5071575;28;20111;-38
2024/03/16 07:47:40;;;;;;;7.65;1.10;;;9.20;91.70;;;;;;5071937;28;20029;-31
2024/03/16 07:50:06;;;;;;;2.97;1.38;;;9.30;91.60;;;;;;5071863;28;20032;-29
2024/03/16 07:52:32;;;;;;;2.95;1.30;;;9.30;91.50;;;;;;5071844;28;20389;-29
2024/03/16 07:54:59;;;;;;;4.50;1.20;;;9.30;91.50;;;;;;5071974;28;20501;-33
2024/03/16 07:57:27;;;;;;;3.10;0.98;;;9.40;91.40;;;;;;5071942;28;20548;-30
2024/03/16 07:59:52;;;;;;;5.72;1.20;;;9.40;91.30;;;;;;5071443;28;20020;-28
2024/03/16 08:02:18;;;;;;;2.78;1.20;;;9.40;91.20;;;;;;5071881;28;20023;-29
2024/03/16 08:04:44;;;;;;;2.88;1.50;;;9.40;91.10;;;;;;5071370;28;20404;-28
2024/03/16 08:07:09;;;;;;;5.93;1.38;;;9.50;90.90;;;;;;5071481;28;20059;-30
2024/03/16 08:09:35;;;;;;;4.88;1.30;;;9.40;90.90;;;;;;5073463;28;20389;-28
2024/03/16 08:12:00;;;;;;;5.32;1.10;;;9.40;90.90;;;;;;5075896;28;20017;-29
2024/03/16 08:14:32;;;;;;;4.38;1.33;;;9.40;90.90;;;;;;5075357;28;20082;-29
2024/03/16 08:16:57;;;;;;;6.05;1.38;;;9.50;90.90;;;;;;5075817;28;20024;-30
2024/03/16 08:19:23;;;;;;;5.35;1.23;;;9.50;90.70;;;;;;5075510;28;20104;-36
2024/03/16 08:21:49;;;;;;;4.28;1.08;;;9.60;90.60;;;;;;5075518;28;20028;-31
2024/03/16 08:24:16;;;;;;;3.80;1.10;;;9.60;90.60;;;;;;5074036;28;20078;-29
2024/03/16 08:26:41;;;;;;;3.53;1.02;;;9.70;90.40;;;;;;5075434;28;20431;-30
2024/03/16 08:29:07;;;;;;;4.82;1.30;;;9.70;90.30;;;;;;5075409;28;20161;-29
2024/03/16 08:31:33;;;;;;;3.33;1.30;;;9.80;90.30;;;;;;5075032;28;20035;-39
2024/03/16 08:33:58;;;;;;;5.55;1.17;;;9.80;90.30;;;;;;5075271;28;20024;-33
2024/03/16 08:36:24;;;;;;;7.38;1.38;;;9.90;90.20;;;;;;5074753;28;20063;-28
2024/03/16 08:38:50;;;;;;;5.53;1.00;;;9.90;90.20;;;;;;5075043;28;20028;-32
2024/03/16 08:41:15;;;;;;;5.78;1.20;;;10.00;90.10;;;;;;5075068;28;20025;-28
2024/03/16 08:43:41;;;;;;;2.83;0.98;;;10.00;90.00;;;;;;5075109;28;20074;-32
2024/03/16 08:46:07;;;;;;;4.20;1.00;;;10.10;89.70;;;;;;5074875;28;20013;-29
2024/03/16 08:48:33;;;;;;;6.22;1.02;;;10.10;89.80;;;;;;5074876;28;20025;-29
2024/03/16 08:50:59;;;;;;;3.70;1.10;;;10.20;89.70;;;;;;5075183;28;20453;-40
2024/03/16 08:53:26;;;;;;;2.47;0.80;;;10.30;89.40;;;;;;5075108;28;20052;-29
2024/03/16 08:55:56;;;;;;;4.10;1.00;;;10.30;89.30;;;;;;5074861;28;20048;-31
2024/03/16 08:58:24;;;;;;;5.43;1.00;;;10.40;88.70;;;;;;5074907;28;20103;-29
2024/03/16 09:00:53;;;;;;;4.30;1.02;;;10.40;88.40;;;;;;5074521;28;20024;-30
2024/03/16 09:03:20;;;;;;;3.50;0.98;;;10.50;87.90;;;;;;5074752;28;20495;-33
2024/03/16 09:05:45;;;;;;;4.60;1.20;;;10.50;87.70;;;;;;5074252;28;20054;-29
2024/03/16 09:08:11;;;;;;;5.72;1.05;;;10.50;87.10;;;;;;5074513;28;20056;-34
2024/03/16 09:10:37;;;;;;;6.88;1.40;;;10.50;87.30;;;;;;5074573;28;20033;-29
2024/03/16 09:13:03;;;;;;;6.60;1.40;;;10.50;87.10;;;;;;5074694;28;20032;-30
2024/03/16 09:15:28;;;;;;;3.60;1.35;;;10.50;87.10;;;;;;5074185;28;20060;-48
2024/03/16 09:17:54;;;;;;;6.30;1.05;;;10.60;87.20;;;;;;5073005;28;20058;-30
2024/03/16 09:20:20;;;;;;;5.97;1.00;;;10.60;87.10;;;;;;5073634;28;20434;-32
2024/03/16 09:22:45;;;;;;;2.65;1.02;;;10.60;86.10;;;;;;5074492;28;20028;-31
2024/03/16 09:25:11;;;;;;;2.88;1.02;;;10.60;86.20;;;;;;5074196;28;20096;-35
2024/03/16 09:27:37;;;;;;;6.30;1.45;;;10.60;85.80;;;;;;5074437;28;20017;-30
2024/03/16 09:30:08;;;;;;;5.35;1.20;;;10.60;85.80;;;;;;5074157;28;20233;-30
2024/03/16 09:32:34;;;;;;;5.18;1.38;;;10.60;84.60;;;;;;5074197;28;20028;-29
2024/03/16 09:35:00;;;;;;;5.07;1.30;;;10.60;84.70;;;;;;5072264;28;20028;-33
2024/03/16 09:37:25;;;;;;;3.63;1.23;;;10.50;85.10;;;;;;5072596;28;20036;-32
2024/03/16 09:39:51;;;;;;;4.88;1.30;;;10.60;85.40;;;;;;5073747;28;20032;-30
2024/03/16 09:42:17;;;;;;;8.35;1.17;;;10.60;85.60;;;;;;5074114;28;20029;-30
2024/03/16 09:44:45;;;;;;;4.70;1.20;;;10.60;85.40;;;;;;5073507;28;20030;-34
2024/03/16 09:47:14;;;;;;;10.88;1.55;;;10.70;85.60;;;;;;5072453;28;20037;-30
2024/03/16 09:49:41;;;;;;;6.18;1.33;;;10.70;84.60;;;;;;5073590;28;20036;-31
2024/03/16 09:52:12;;;;;;;6.82;1.30;;;10.70;84.40;;;;;;5073459;28;20028;-30
2024/03/16 09:54:38;;;;;;;3.08;1.10;;;10.70;83.30;;;;;;5073485;28;20017;-32
2024/03/16 09:57:12;;;;;;;5.13;1.10;;;10.60;82.90;;;;;;5073644;28;20366;-31
2024/03/16 09:59:37;;;;;;;3.08;1.17;;;10.60;83.10;;;;;;5073284;28;20086;-33
2024/03/16 10:02:15;;;;;;;3.35;1.05;;;10.70;82.20;;;;;;5073131;28;20020;-32
2024/03/16 10:04:40;;;;;;;3.85;1.10;;;10.60;82.20;;;;;;5073317;28;20403;-31
2024/03/16 10:07:07;;;;;;;6.20;1.10;;;10.60;81.10;;;;;;5073114;28;20025;-39
2024/03/16 10:09:33;;;;;;;3.72;0.80;;;10.50;79.60;;;;;;5071838;28;20021;-31
2024/03/16 10:12:16;;;;;;;3.35;1.00;;;10.50;80.70;;;;;;5073145;28;20502;-30
2024/03/16 10:14:42;;;;;;;;;;;10.50;80.80;;;;;;5071874;28;20023;-30
2024/03/16 10:17:07;;;;;;;2.63;0.75;;;10.50;80.30;;;;;;5072550;28;20400;-31
2024/03/16 10:19:35;;;;;;;2.50;0.80;;;10.50;80.60;;;;;;5073059;28;20021;-30
2024/03/16 10:22:05;;;;;;;5.60;0.85;;;10.50;78.50;;;;;;5072914;28;20073;-33
2024/03/16 10:24:32;;;;;;;5.82;1.10;;;10.40;78.60;;;;;;5072730;28;20024;-31
2024/03/16 10:26:57;;;;;;;5.75;0.90;;;10.30;78.80;;;;;;5073110;28;20108;-30
2024/03/16 10:29:24;;;;;;;6.28;1.10;;;10.30;78.70;;;;;;5072672;28;20103;-31
2024/03/16 10:31:50;;;;;;;3.50;0.93;;;10.40;79.10;;;;;;5072910;28;20070;-31
2024/03/16 10:34:16;;;;;;;5.25;1.15;;;10.50;79.30;;;;;;5072517;28;20488;-29
2024/03/16 10:36:41;;;;;;;2.35;0.77;;;10.60;78.20;;;;;;5071889;28;20094;-31
2024/03/16 10:39:08;;;;;;;4.93;1.02;;;10.60;79.10;;;;;;5072613;28;20020;-31
2024/03/16 10:41:34;;;;;;;1.90;0.82;;;10.80;78.30;;;;;;5072467;28;20435;-33
2024/03/16 10:44:02;;;;;;;4.38;1.00;;;10.80;77.90;;;;;;5072756;28;20047;-29
2024/03/16 10:46:28;;;;;;;5.88;1.20;;;10.90;76.60;;;;;;5072369;28;20481;-30
2024/03/16 10:48:53;;;;;;;4.60;1.42;;;10.90;75.70;;;;;;5072576;28;20083;-31
2024/03/16 10:51:19;;;;;;;3.33;1.10;;;10.80;76.30;;;;;;5072679;28;20028;-32
2024/03/16 10:53:46;;;;;;;1.67;0.80;;;10.90;76.60;;;;;;5072698;28;20013;-30
2024/03/16 10:56:13;;;;;;;4.05;0.88;;;10.90;76.10;;;;;;5072847;28;20013;-32
2024/03/16 10:58:39;;;;;;;3.00;1.23;;;11.00;77.00;;;;;;5072552;28;20036;-34
2024/03/16 11:01:08;;;;;;;2.38;0.82;;;11.00;76.80;;;;;;5072593;28;20025;-32
2024/03/16 11:03:38;;;;;;;4.95;0.95;;;11.10;77.20;;;;;;5070913;28;20012;-33
2024/03/16 11:06:10;;;;;;;2.55;0.82;;;11.20;77.20;;;;;;5072260;28;20021;-31
2024/03/16 11:08:44;;;;;;;3.75;1.00;;;11.30;77.00;;;;;;5072681;28;20540;-31
2024/03/16 11:11:26;;;;;;;4.63;1.00;;;11.40;76.00;;;;;;5072511;28;20484;-30
2024/03/16 11:16:30;;;;;;;3.03;1.13;;;11.50;75.90;;;;;;5072072;28;20036;-30
2024/03/16 11:19:07;;;;;;;3.90;1.30;;;11.60;75.40;;;;;;5072190;28;20024;-30
2024/03/16 11:21:37;;;;;;;2.13;0.80;;;11.60;75.90;;;;;;5072095;28;20042;-30
2024/03/16 11:24:10;;;;;;;2.78;1.10;;;11.60;75.60;;;;;;5071076;28;20017;-31
2024/03/16 11:26:39;;;;;;;6.18;1.65;;;11.60;74.70;;;;;;5072387;28;20126;-30
2024/03/16 11:29:16;;;;;;;1.92;0.75;;;11.60;73.50;;;;;;5071933;28;20028;-35
2024/03/16 11:31:53;;;;;;;4.72;0.95;;;11.60;74.90;;;;;;5072233;28;20020;-30
2024/03/16 11:34:20;;;;;;;3.38;1.00;;;11.50;75.30;;;;;;5071910;28;20024;-32
2024/03/16 11:36:56;;;;;;;3.72;1.08;;;11.60;73.20;;;;;;5070201;28;20048;-30
2024/03/16 11:39:27;;;;;;;3.88;0.93;;;11.50;73.10;;;;;;5071985;28;20051;-30
2024/03/16 11:42:05;;;;;;;3.53;0.98;;;11.50;73.60;;;;;;5071997;28;20492;-32
2024/03/16 11:44:32;;;;;;;4.97;1.08;;;11.40;72.80;;;;;;5071447;28;20059;-31
2024/03/16 11:46:57;;;;;;;3.40;1.00;;;11.40;72.50;;;;;;5072140;28;20032;-31
2024/03/16 11:49:24;;;;;;;3.67;1.00;;;11.30;70.50;;;;;;5071799;28;20021;-31
2024/03/16 11:51:57;;;;;;;4.10;1.10;;;11.30;71.20;;;;;;5071766;28;20032;-29
2024/03/16 11:54:23;;;;;;;4.93;1.15;;;11.30;71.70;;;;;;5071728;28;20036;-35
2024/03/16 11:56:49;;;;;;;3.08;1.00;;;11.30;71.40;;;;;;5071933;28;20024;-33
2024/03/16 11:59:18;;;;;;;4.13;1.17;;;11.30;72.00;;;;;;5071736;28;20103;-32
2024/03/16 12:01:47;;;;;;;3.58;1.40;;;11.40;71.50;;;;;;5071809;28;20100;-31
2024/03/16 12:04:15;;;;;;;4.72;1.20;;;11.40;69.40;;;;;;5072068;28;20099;-32
2024/03/16 12:06:42;;;;;;;1.95;0.80;;;11.40;71.20;;;;;;5071621;28;20052;-32
2024/03/16 12:09:13;;;;;;;2.97;0.85;;;11.50;70.70;;;;;;5071787;28;20484;-32
2024/03/16 12:11:48;;;;;;;4.22;0.90;;;11.60;71.30;;;;;;5071589;28;20031;-31
2024/03/16 12:14:17;;;;;;;7.22;1.40;;;11.80;70.30;;;;;;5071406;28;20025;-30
2024/03/16 12:16:43;;;;;;;3.38;1.00;;;11.90;69.80;;;;;;5071798;28;20436;-30
2024/03/16 12:19:11;;;;;;;2.65;1.02;;;11.90;68.60;;;;;;5071527;28;20089;-33
2024/03/16 12:21:47;;;;;;;6.70;1.35;;;11.90;66.60;;;;;;5071784;28;20048;-33
2024/03/16 12:24:22;;;;;;;3.83;1.10;;;11.90;67.70;;;;;;5071561;28;20476;-45
2024/03/16 12:26:49;;;;;;;5.03;1.00;;;11.90;66.80;;;;;;5071483;28;20025;-31
2024/03/16 12:29:18;;;;;;;4.40;1.00;;;11.90;64.70;;;;;;5071357;28;20029;-32
2024/03/16 12:31:44;;;;;;;3.63;0.95;;;11.90;65.20;;;;;;5071420;28;20091;-31
2024/03/16 12:34:12;;;;;;;3.97;1.10;;;11.80;64.60;;;;;;5071593;28;20017;-32
2024/03/16 12:36:38;;;;;;;2.95;1.05;;;11.80;64.70;;;;;;5071326;28;20405;-34
2024/03/16 12:39:07;;;;;;;4.60;0.90;;;11.80;65.70;;;;;;5071712;28;20021;-36
2024/03/16 12:41:36;;;;;;;4.35;1.27;;;11.80;66.00;;;;;;5071519;28;20020;-31
2024/03/16 12:44:03;;;;;;;2.75;1.00;;;11.90;65.80;;;;;;5071583;28;20021;-32
2024/03/16 12:46:29;;;;;;;5.03;1.00;;;11.90;65.10;;;;;;5071490;28;20503;-30
2024/03/16 12:48:54;;;;;;;3.90;1.00;;;11.90;64.10;;;;;;5071411;28;20052;-30
2024/03/16 12:51:20;;;;;;;3.78;0.80;;;11.80;64.20;;;;;;5071519;28;20107;-33